createdAt,value
2022-10-31T00:01:32.428Z,11.25
2022-10-31T00:04:00.371Z,11.25
2022-10-31T00:06:28.098Z,11.20
2022-10-31T00:08:59.248Z,11.23
2022-10-31T00:11:27.219Z,11.27
2022-10-31T00:13:55.108Z,11.26
2022-10-31T00:16:25.174Z,11.25
2022-10-31T00:18:54.173Z,11.27
2022-10-31T00:21:22.884Z,11.26
2022-10-31T00:23:50.703Z,11.23
2022-10-31T00:26:19.134Z,11.14
2022-10-31T00:28:47.026Z,11.09
2022-10-31T00:31:15.027Z,11.00
2022-10-31T00:33:43.645Z,10.99
2022-10-31T00:36:17.402Z,10.99
2022-10-31T00:38:46.162Z,10.96
2022-10-31T00:41:16.156Z,10.97
2022-10-31T00:43:44.811Z,11.00
2022-10-31T00:46:13.986Z,11.00
2022-10-31T00:48:41.675Z,10.96
2022-10-31T00:51:09.795Z,10.97
2022-10-31T00:53:37.718Z,11.00
2022-10-31T00:56:05.716Z,11.01
2022-10-31T00:58:33.340Z,10.98
2022-10-31T01:01:01.028Z,10.95
2022-10-31T01:03:34.460Z,10.91
2022-10-31T01:06:14.246Z,10.86
2022-10-31T01:08:42.224Z,10.84
2022-10-31T01:11:24.887Z,10.77
2022-10-31T01:13:54.451Z,10.71
2022-10-31T01:16:25.489Z,10.67
2022-10-31T01:18:53.601Z,10.64
2022-10-31T01:21:26.487Z,10.59
2022-10-31T01:23:57.731Z,10.58
2022-10-31T01:26:31.965Z,10.58
2022-10-31T01:29:05.758Z,10.56
2022-10-31T01:31:37.523Z,10.58
2022-10-31T01:34:06.070Z,10.60
2022-10-31T01:36:38.988Z,10.60
2022-10-31T01:39:09.420Z,10.60
2022-10-31T01:41:40.037Z,10.65
2022-10-31T01:44:16.898Z,10.62
2022-10-31T01:46:49.417Z,10.61
2022-10-31T01:49:37.103Z,10.61
2022-10-31T01:52:28.438Z,10.63
2022-10-31T01:55:07.064Z,10.63
2022-10-31T01:57:36.850Z,10.62
2022-10-31T02:00:09.763Z,10.63
2022-10-31T02:02:37.908Z,10.62
2022-10-31T02:05:09.974Z,10.66
2022-10-31T02:07:51.894Z,10.64
2022-10-31T02:10:23.184Z,10.68
2022-10-31T02:12:54.715Z,10.66
2022-10-31T02:15:22.444Z,10.66
2022-10-31T02:17:50.226Z,10.70
2022-10-31T02:20:23.646Z,10.71
2022-10-31T02:23:00.239Z,10.78
2022-10-31T02:26:01.182Z,10.82
2022-10-31T02:28:54.520Z,10.86
2022-10-31T02:31:34.147Z,10.86
2022-10-31T02:34:11.727Z,10.91
2022-10-31T02:36:59.980Z,10.91
2022-10-31T02:39:34.945Z,10.92
2022-10-31T02:42:19.167Z,10.95
2022-10-31T02:45:08.551Z,10.94
2022-10-31T02:47:39.743Z,10.93
2022-10-31T02:50:16.264Z,10.89
2022-10-31T02:52:43.845Z,10.84
2022-10-31T02:55:36.739Z,10.78
2022-10-31T02:58:06.563Z,10.73
2022-10-31T03:00:47.075Z,10.73
2022-10-31T03:03:25.202Z,10.76
2022-10-31T03:06:16.442Z,10.76
2022-10-31T03:09:03.079Z,10.71
2022-10-31T03:11:38.532Z,10.69
2022-10-31T03:14:36.736Z,10.65
2022-10-31T03:17:09.134Z,10.68
2022-10-31T03:19:44.842Z,10.70
2022-10-31T03:22:21.484Z,10.70
2022-10-31T03:24:53.414Z,10.72
2022-10-31T03:27:26.132Z,10.68
2022-10-31T03:29:59.526Z,10.71
2022-10-31T03:32:31.929Z,10.71
2022-10-31T03:35:03.047Z,10.69
2022-10-31T03:37:34.388Z,10.71
2022-10-31T03:40:04.808Z,10.71
2022-10-31T03:42:36.107Z,10.74
2022-10-31T03:45:10.622Z,10.74
2022-10-31T03:47:40.687Z,10.73
2022-10-31T03:50:10.236Z,10.73
2022-10-31T03:53:00.664Z,10.73
2022-10-31T03:55:44.907Z,10.75
2022-10-31T03:58:21.038Z,10.78
2022-10-31T04:00:52.863Z,10.80
2022-10-31T04:03:37.670Z,10.80
2022-10-31T04:06:10.172Z,10.83
2022-10-31T04:08:44.167Z,10.80
2022-10-31T04:11:15.548Z,10.79
2022-10-31T04:13:46.386Z,10.79
2022-10-31T04:16:17.163Z,10.81
2022-10-31T04:18:45.576Z,10.82
2022-10-31T04:21:13.188Z,10.81
2022-10-31T04:23:40.817Z,10.82
2022-10-31T04:26:08.461Z,10.83
2022-10-31T04:28:36.125Z,10.85
2022-10-31T04:31:03.765Z,10.84
2022-10-31T04:33:31.444Z,10.83
2022-10-31T04:35:59.108Z,10.83
2022-10-31T04:38:26.735Z,10.83
2022-10-31T04:40:54.545Z,10.82
2022-10-31T04:43:22.161Z,10.81
2022-10-31T04:45:50.050Z,10.78
2022-10-31T04:48:17.620Z,10.75
2022-10-31T04:50:45.362Z,10.77
2022-10-31T04:53:13.029Z,10.78
2022-10-31T04:55:40.673Z,10.74
2022-10-31T04:58:08.300Z,10.75
2022-10-31T05:00:36.228Z,10.72
2022-10-31T05:03:04.175Z,10.72
2022-10-31T05:05:33.202Z,10.70
2022-10-31T05:08:00.882Z,10.68
2022-10-31T05:10:31.070Z,10.66
2022-10-31T05:13:02.102Z,10.64
2022-10-31T05:15:30.343Z,10.65
2022-10-31T05:17:58.872Z,10.60
2022-10-31T05:20:30.125Z,10.60
2022-10-31T05:22:59.088Z,10.59
2022-10-31T05:25:29.280Z,10.60
2022-10-31T05:27:58.404Z,10.64
2022-10-31T05:30:29.887Z,10.69
2022-10-31T05:32:58.203Z,10.74
2022-10-31T05:35:28.590Z,10.74
2022-10-31T05:37:56.444Z,10.68
2022-10-31T05:40:24.483Z,10.69
2022-10-31T05:42:56.907Z,10.67
2022-10-31T05:45:25.114Z,10.70
2022-10-31T05:48:01.304Z,10.69
2022-10-31T05:50:31.423Z,10.68
2022-10-31T05:53:04.672Z,10.70
2022-10-31T05:55:33.489Z,10.70
2022-10-31T05:58:01.581Z,10.69
2022-10-31T06:00:30.256Z,10.72
2022-10-31T06:03:02.239Z,10.72
2022-10-31T06:05:30.953Z,10.73
2022-10-31T06:07:59.206Z,10.73
2022-10-31T06:10:27.656Z,10.69
2022-10-31T06:12:55.247Z,10.69
2022-10-31T06:15:24.487Z,10.68
2022-10-31T06:18:06.757Z,10.69
2022-10-31T06:20:35.540Z,10.69
2022-10-31T06:23:04.034Z,10.68
2022-10-31T06:25:32.146Z,10.63
2022-10-31T06:27:59.736Z,10.66
2022-10-31T06:30:27.542Z,10.66
2022-10-31T06:32:55.310Z,10.65
2022-10-31T06:35:23.025Z,10.60
2022-10-31T06:37:54.878Z,10.61
2022-10-31T06:40:23.179Z,10.60
2022-10-31T06:43:02.019Z,10.63
2022-10-31T06:45:30.308Z,10.66
2022-10-31T06:50:46.800Z,10.68
2022-10-31T06:53:16.267Z,10.67
2022-10-31T06:55:44.658Z,10.68
2022-10-31T06:58:13.203Z,10.71
2022-10-31T07:00:40.995Z,10.70
2022-10-31T07:03:12.532Z,10.72
2022-10-31T07:05:40.440Z,10.73
2022-10-31T07:08:11.136Z,10.74
2022-10-31T07:10:40.836Z,10.77
2022-10-31T07:13:14.172Z,10.75
2022-10-31T07:15:43.908Z,10.72
2022-10-31T07:18:13.712Z,10.84
2022-10-31T07:20:41.433Z,11.09
2022-10-31T07:23:11.663Z,11.10
2022-10-31T07:25:42.172Z,11.05
2022-10-31T07:28:10.417Z,11.10
2022-10-31T07:30:39.035Z,11.12
2022-10-31T07:33:07.443Z,11.14
2022-10-31T07:35:36.874Z,11.15
2022-10-31T07:38:12.487Z,11.15
2022-10-31T07:40:40.732Z,11.16
2022-10-31T07:43:11.601Z,11.17
2022-10-31T07:45:41.638Z,11.20
2022-10-31T07:48:09.273Z,11.23
2022-10-31T07:50:37.166Z,11.23
2022-10-31T07:53:10.456Z,11.16
2022-10-31T07:55:38.958Z,11.14
2022-10-31T07:58:09.322Z,11.19
2022-10-31T08:00:38.600Z,11.20
2022-10-31T08:03:11.694Z,11.21
2022-10-31T08:05:39.868Z,11.21
2022-10-31T08:08:07.928Z,11.25
2022-10-31T08:10:36.508Z,11.23
2022-10-31T08:13:07.505Z,11.20
2022-10-31T08:15:39.034Z,11.25
2022-10-31T08:18:07.884Z,11.23
2022-10-31T08:20:35.677Z,11.22
2022-10-31T08:23:06.191Z,11.21
2022-10-31T08:25:38.627Z,11.26
2022-10-31T08:28:08.391Z,11.26
2022-10-31T08:30:37.757Z,11.23
2022-10-31T08:33:13.679Z,11.19
2022-10-31T08:35:41.710Z,11.21
2022-10-31T08:38:11.735Z,11.23
2022-10-31T08:40:40.065Z,11.22
2022-10-31T08:43:13.550Z,11.27
2022-10-31T08:45:41.524Z,11.33
2022-10-31T08:48:12.658Z,11.38
2022-10-31T08:50:40.611Z,11.38
2022-10-31T08:53:12.031Z,11.41
2022-10-31T08:55:41.356Z,11.43
2022-10-31T08:58:14.411Z,11.45
2022-10-31T09:00:42.647Z,11.38
2022-10-31T09:03:20.144Z,11.35
2022-10-31T09:05:47.948Z,11.33
2022-10-31T09:08:17.245Z,11.36
2022-10-31T09:10:45.679Z,11.35
2022-10-31T09:13:18.752Z,11.29
2022-10-31T09:15:48.488Z,11.23
2022-10-31T09:18:18.866Z,11.25
2022-10-31T09:20:47.799Z,11.20
2022-10-31T09:23:17.902Z,11.21
2022-10-31T09:25:50.166Z,11.27
2022-10-31T09:28:21.359Z,11.29
2022-10-31T09:30:50.793Z,11.30
2022-10-31T09:33:19.234Z,11.32
2022-10-31T09:35:47.028Z,11.38
2022-10-31T09:38:21.240Z,11.39
2022-10-31T09:41:05.728Z,11.38
2022-10-31T09:43:42.135Z,11.40
2022-10-31T09:46:31.430Z,11.45
2022-10-31T09:49:32.927Z,11.48
2022-10-31T09:52:21.021Z,11.54
2022-10-31T09:54:54.744Z,11.57
2022-10-31T09:57:29.555Z,11.60
2022-10-31T09:59:57.693Z,11.58
2022-10-31T10:02:49.642Z,11.65
2022-10-31T10:05:24.376Z,11.67
2022-10-31T10:08:24.614Z,11.67
2022-10-31T10:11:27.287Z,11.74
2022-10-31T10:14:06.863Z,11.78
2022-10-31T10:17:08.909Z,11.84
2022-10-31T10:19:51.786Z,11.93
2022-10-31T10:22:41.360Z,11.98
2022-10-31T10:25:28.062Z,12.04
2022-10-31T10:27:58.673Z,12.06
2022-10-31T10:30:44.405Z,12.08
2022-10-31T10:33:32.226Z,12.15
2022-10-31T10:36:07.308Z,12.25
2022-10-31T10:38:55.795Z,12.29
2022-10-31T10:41:29.358Z,12.29
2022-10-31T10:43:59.493Z,12.39
2022-10-31T10:47:02.193Z,12.46
2022-10-31T10:49:52.043Z,12.54
2022-10-31T10:52:50.577Z,12.61
2022-10-31T10:55:24.614Z,12.64
2022-10-31T10:57:58.151Z,12.69
2022-10-31T11:00:34.130Z,12.67
2022-10-31T11:03:02.590Z,12.56
2022-10-31T11:05:54.983Z,12.61
2022-10-31T11:08:37.110Z,12.67
2022-10-31T11:11:22.754Z,12.68
2022-10-31T11:13:52.373Z,12.63
2022-10-31T11:16:29.258Z,12.64
2022-10-31T11:19:09.416Z,12.65
2022-10-31T11:21:37.370Z,12.62
2022-10-31T11:24:18.516Z,12.58
2022-10-31T11:26:48.519Z,12.56
2022-10-31T11:29:17.780Z,12.61
2022-10-31T11:31:48.587Z,12.63
2022-10-31T11:34:23.964Z,12.66
2022-10-31T11:36:52.108Z,12.68
2022-10-31T11:39:24.653Z,12.66
2022-10-31T11:41:55.072Z,12.66
2022-10-31T11:44:29.597Z,12.66
2022-10-31T11:47:04.692Z,12.61
2022-10-31T11:49:41.852Z,12.66
2022-10-31T11:52:32.071Z,12.67
2022-10-31T11:55:03.604Z,12.62
2022-10-31T11:57:44.605Z,12.65
2022-10-31T12:00:32.607Z,12.65
2022-10-31T12:03:16.084Z,12.69
2022-10-31T12:05:46.922Z,12.71
2022-10-31T12:08:15.746Z,12.75
2022-10-31T12:11:28.290Z,12.80
2022-10-31T12:14:04.753Z,12.87
2022-10-31T12:16:52.628Z,12.89
2022-10-31T12:19:27.010Z,12.92
2022-10-31T12:21:59.961Z,12.95
2022-10-31T12:24:27.522Z,12.98
2022-10-31T12:27:04.202Z,13.00
2022-10-31T12:30:09.211Z,13.00
2022-10-31T12:33:41.424Z,13.04
2022-10-31T12:36:20.779Z,13.07
2022-10-31T12:39:16.112Z,13.13
2022-10-31T12:42:22.223Z,13.22
2022-10-31T12:44:55.368Z,13.36
2022-10-31T12:48:10.408Z,13.46
2022-10-31T12:50:58.095Z,13.54
2022-10-31T12:53:50.624Z,13.60
2022-10-31T12:56:21.212Z,13.70
2022-10-31T12:59:02.635Z,13.66
2022-10-31T13:01:42.948Z,13.70
2022-10-31T13:04:22.975Z,13.71
2022-10-31T13:06:55.922Z,13.73
2022-10-31T13:09:32.804Z,13.81
2022-10-31T13:12:09.861Z,13.83
2022-10-31T13:14:46.921Z,13.89
2022-10-31T13:17:46.272Z,13.92
2022-10-31T13:20:22.988Z,13.94
2022-10-31T13:22:59.087Z,13.92
2022-10-31T13:25:32.508Z,13.87
2022-10-31T13:28:07.865Z,13.90
2022-10-31T13:30:40.026Z,13.92
2022-10-31T13:33:18.355Z,13.93
2022-10-31T13:35:57.124Z,13.90
2022-10-31T13:38:49.372Z,13.94
2022-10-31T13:41:29.104Z,13.95
2022-10-31T13:44:11.271Z,13.98
2022-10-31T13:49:32.373Z,14.03
2022-10-31T13:52:15.381Z,14.02
2022-10-31T13:54:53.736Z,13.97
2022-10-31T13:57:54.692Z,13.94
2022-10-31T14:00:22.262Z,13.95
2022-10-31T14:02:52.970Z,13.93
2022-10-31T14:05:32.027Z,13.94
2022-10-31T14:08:03.866Z,13.97
2022-10-31T14:10:34.276Z,14.00
2022-10-31T14:13:16.211Z,14.00
2022-10-31T14:15:54.393Z,13.91
2022-10-31T14:18:39.998Z,13.88
2022-10-31T14:21:25.926Z,13.84
2022-10-31T14:23:55.275Z,13.81
2022-10-31T14:26:29.124Z,13.77
2022-10-31T14:28:59.023Z,13.75
2022-10-31T14:31:46.933Z,13.70
2022-10-31T14:34:34.153Z,13.64
2022-10-31T14:37:26.248Z,13.60
2022-10-31T14:40:18.270Z,13.58
2022-10-31T14:42:48.672Z,13.49
2022-10-31T14:45:25.557Z,13.45
2022-10-31T14:48:01.528Z,13.40
2022-10-31T14:50:49.280Z,13.35
2022-10-31T14:53:32.858Z,13.31
2022-10-31T14:56:05.803Z,13.26
2022-10-31T14:58:44.999Z,13.25
2022-10-31T15:01:25.158Z,13.23
2022-10-31T15:04:21.902Z,13.16
2022-10-31T15:06:48.580Z,13.14
2022-10-31T15:09:26.580Z,13.12
2022-10-31T15:11:54.531Z,13.08
2022-10-31T15:14:31.259Z,13.01
2022-10-31T15:17:03.400Z,12.94
2022-10-31T15:19:34.733Z,12.86
2022-10-31T15:22:02.864Z,12.79
2022-10-31T15:24:39.392Z,12.73
2022-10-31T15:27:07.543Z,12.68
2022-10-31T15:29:35.203Z,12.66
2022-10-31T15:32:18.250Z,12.63
2022-10-31T15:34:46.873Z,12.61
2022-10-31T15:37:16.855Z,12.60
2022-10-31T15:39:46.192Z,12.53
2022-10-31T15:42:22.145Z,12.47
2022-10-31T15:45:15.887Z,12.48
2022-10-31T15:47:51.281Z,12.45
2022-10-31T15:50:28.980Z,12.36
2022-10-31T15:52:57.181Z,12.28
2022-10-31T15:55:31.412Z,12.21
2022-10-31T15:58:12.978Z,12.18
2022-10-31T16:00:40.897Z,12.16
2022-10-31T16:03:14.452Z,12.14
2022-10-31T16:05:52.805Z,12.11
2022-10-31T16:08:28.015Z,12.13
2022-10-31T16:10:56.741Z,12.12
2022-10-31T16:13:30.156Z,12.12
2022-10-31T16:16:34.094Z,12.09
2022-10-31T16:19:05.604Z,12.06
2022-10-31T16:21:39.086Z,12.04
2022-10-31T16:24:26.620Z,12.01
2022-10-31T16:27:07.238Z,12.01
2022-10-31T16:29:45.990Z,11.97
2022-10-31T16:32:31.847Z,11.97
2022-10-31T16:35:18.139Z,11.95
2022-10-31T16:37:46.154Z,11.91
2022-10-31T16:40:15.455Z,11.87
2022-10-31T16:42:44.482Z,11.83
2022-10-31T16:45:22.410Z,11.84
2022-10-31T16:47:50.520Z,11.83
2022-10-31T16:50:27.137Z,11.83
2022-10-31T16:56:03.889Z,11.82
2022-10-31T16:58:35.007Z,11.84
2022-10-31T17:01:06.056Z,11.83
2022-10-31T17:03:34.007Z,11.83
2022-10-31T17:06:01.624Z,11.85
2022-10-31T17:08:29.255Z,11.84
2022-10-31T17:10:59.004Z,11.80
2022-10-31T17:13:30.270Z,11.79
2022-10-31T17:16:01.906Z,11.79
2022-10-31T17:18:30.099Z,11.78
2022-10-31T17:21:00.752Z,11.76
2022-10-31T17:23:29.725Z,11.73
2022-10-31T17:25:58.055Z,11.70
2022-10-31T17:28:27.723Z,11.66
2022-10-31T17:30:57.024Z,11.62
2022-10-31T17:33:24.649Z,11.59
2022-10-31T17:35:52.814Z,11.63
2022-10-31T17:38:20.697Z,11.59
2022-10-31T17:43:15.912Z,11.56
2022-10-31T17:45:43.881Z,11.54
2022-10-31T17:48:13.619Z,11.53
2022-10-31T17:50:41.334Z,11.52
2022-10-31T17:53:08.991Z,11.48
2022-10-31T17:55:37.659Z,11.52
2022-10-31T17:58:06.108Z,11.53
2022-10-31T18:00:34.455Z,11.55
2022-10-31T18:03:04.893Z,11.55
2022-10-31T18:05:32.849Z,11.57
2022-10-31T18:08:04.247Z,11.61
2022-10-31T18:10:32.638Z,11.62
2022-10-31T18:13:00.678Z,11.58
2022-10-31T18:15:29.678Z,11.57
2022-10-31T18:17:57.295Z,11.61
2022-10-31T18:20:24.924Z,11.61
2022-10-31T18:22:52.512Z,11.59
2022-10-31T18:25:20.152Z,11.57
2022-10-31T18:27:47.778Z,11.56
2022-10-31T18:30:15.486Z,11.57
2022-10-31T18:32:43.069Z,11.56
2022-10-31T18:35:10.785Z,11.56
2022-10-31T18:37:38.487Z,11.55
2022-10-31T18:40:06.644Z,11.56
2022-10-31T18:42:34.281Z,11.56
2022-10-31T18:45:11.418Z,11.54
2022-10-31T18:47:44.725Z,11.55
2022-10-31T18:50:13.536Z,11.56
2022-10-31T18:52:41.267Z,11.56
2022-10-31T18:55:09.419Z,11.53
2022-10-31T18:57:37.452Z,11.55
2022-10-31T19:00:08.632Z,11.56
2022-10-31T19:02:36.322Z,11.54
2022-10-31T19:05:04.107Z,11.52
2022-10-31T19:07:32.112Z,11.45
2022-10-31T19:09:59.724Z,11.40
2022-10-31T19:12:27.350Z,11.37
2022-10-31T19:14:55.590Z,11.33
2022-10-31T19:17:25.836Z,11.28
2022-10-31T19:19:53.527Z,11.20
2022-10-31T19:22:21.235Z,11.10
2022-10-31T19:24:48.890Z,11.07
2022-10-31T19:27:16.516Z,11.02
2022-10-31T19:29:44.303Z,10.97
2022-10-31T19:32:11.852Z,10.95
2022-10-31T19:34:39.498Z,10.91
2022-10-31T19:37:07.089Z,10.90
2022-10-31T19:39:36.027Z,10.88
2022-10-31T19:42:06.441Z,10.86
2022-10-31T19:44:34.958Z,10.86
2022-10-31T19:47:02.595Z,10.83
2022-10-31T19:49:30.244Z,10.80
2022-10-31T19:51:57.965Z,10.79
2022-10-31T19:54:25.753Z,10.81
2022-10-31T19:56:53.412Z,10.78
2022-10-31T19:59:21.049Z,10.77
2022-10-31T20:01:48.813Z,10.78
2022-10-31T20:04:16.428Z,10.81
2022-10-31T20:06:44.145Z,10.79
2022-10-31T20:09:14.797Z,10.80
2022-10-31T20:11:44.602Z,10.84
2022-10-31T20:14:14.685Z,10.84
2022-10-31T20:16:42.828Z,10.84
2022-10-31T20:19:10.606Z,10.87
2022-10-31T20:21:40.196Z,10.91
2022-10-31T20:24:10.741Z,10.92
2022-10-31T20:26:41.686Z,10.94
2022-10-31T20:29:14.315Z,10.98
2022-10-31T20:31:42.013Z,11.04
2022-10-31T20:34:09.716Z,11.09
2022-10-31T20:36:37.796Z,11.12
2022-10-31T20:39:05.713Z,11.19
2022-10-31T20:41:33.718Z,11.23
2022-10-31T20:44:01.352Z,11.25
2022-10-31T20:46:29.093Z,11.29
2022-10-31T20:48:56.740Z,11.30
2022-10-31T20:51:28.961Z,11.37
2022-10-31T20:54:00.129Z,11.41
2022-10-31T20:56:29.399Z,11.45
2022-10-31T20:58:58.146Z,11.51
2022-10-31T21:01:29.290Z,11.54
2022-10-31T21:03:57.901Z,11.57
2022-10-31T21:06:25.658Z,11.58
2022-10-31T21:08:54.813Z,11.58
2022-10-31T21:11:24.296Z,11.62
2022-10-31T21:13:52.628Z,11.62
2022-10-31T21:16:26.663Z,11.59
2022-10-31T21:18:55.276Z,11.62
2022-10-31T21:21:33.794Z,11.63
2022-10-31T21:24:11.900Z,11.64
2022-10-31T21:26:42.590Z,11.63
2022-10-31T21:29:11.533Z,11.63
2022-10-31T21:31:40.603Z,11.63
2022-10-31T21:34:09.090Z,11.63
2022-10-31T21:36:37.217Z,11.64
2022-10-31T21:39:07.182Z,11.64
2022-10-31T21:41:35.254Z,11.58
2022-10-31T21:44:03.000Z,11.55
2022-10-31T21:46:32.709Z,11.51
2022-10-31T21:49:02.570Z,11.50
2022-10-31T21:51:33.138Z,11.52
2022-10-31T21:54:19.740Z,11.51
2022-10-31T21:56:47.539Z,11.52
2022-10-31T21:59:15.334Z,11.53
2022-10-31T22:01:43.145Z,11.55
2022-10-31T22:04:11.413Z,11.54
2022-10-31T22:06:39.447Z,11.55
2022-10-31T22:09:08.781Z,11.55
2022-10-31T22:11:36.569Z,11.52
2022-10-31T22:14:05.919Z,11.51
2022-10-31T22:16:36.987Z,11.49
2022-10-31T22:19:06.532Z,11.47
2022-10-31T22:21:45.832Z,11.49
2022-10-31T22:24:14.341Z,11.49
2022-10-31T22:26:42.077Z,11.44
2022-10-31T22:29:15.834Z,11.44
2022-10-31T22:31:45.748Z,11.47
2022-10-31T22:34:14.935Z,11.47
2022-10-31T22:36:42.979Z,11.48
2022-10-31T22:39:12.979Z,11.46
2022-10-31T22:41:40.792Z,11.45
2022-10-31T22:44:08.546Z,11.47
2022-10-31T22:46:38.825Z,11.47
2022-10-31T22:49:10.071Z,11.43
2022-10-31T22:51:39.889Z,11.38
2022-10-31T22:54:18.290Z,11.37
2022-10-31T22:56:47.065Z,11.35
2022-10-31T22:59:16.614Z,11.33
2022-10-31T23:01:47.986Z,11.33
2022-10-31T23:04:17.290Z,11.30
2022-10-31T23:06:44.971Z,11.26
2022-10-31T23:09:15.626Z,11.24
2022-10-31T23:11:44.098Z,11.20
2022-10-31T23:14:17.213Z,11.16
2022-10-31T23:16:51.747Z,11.11
2022-10-31T23:19:21.548Z,11.07
2022-10-31T23:21:57.991Z,11.02
2022-10-31T23:24:26.530Z,10.97
2022-10-31T23:27:11.050Z,10.95
2022-10-31T23:29:44.629Z,10.88
2022-10-31T23:32:24.105Z,10.86
2022-10-31T23:34:54.076Z,10.86
2022-10-31T23:37:23.744Z,10.84
2022-10-31T23:39:51.436Z,10.82
2022-10-31T23:42:19.923Z,10.81
2022-10-31T23:44:48.036Z,10.77
2022-10-31T23:47:16.556Z,10.75
2022-10-31T23:49:44.523Z,10.73
2022-10-31T23:52:12.696Z,10.75
2022-10-31T23:54:40.764Z,10.73
2022-10-31T23:57:08.788Z,10.74
2022-10-31T23:59:37.802Z,10.74
